createdAt,value
2018-01-18T00:00:48.944Z,66.21
2018-01-18T00:03:16.485Z,66.56
2018-01-18T00:05:43.985Z,65.83
2018-01-18T00:08:11.489Z,66.34
2018-01-18T00:10:39.024Z,66.39
2018-01-18T00:13:06.520Z,66.56
2018-01-18T00:15:34.346Z,65.67
2018-01-18T00:18:01.904Z,64.59
2018-01-18T00:20:29.396Z,64.44
2018-01-18T00:22:56.940Z,65.05
2018-01-18T00:25:24.478Z,65.81
2018-01-18T00:27:52.356Z,64.60
2018-01-18T00:30:19.856Z,65.41
2018-01-18T00:32:47.359Z,64.90
2018-01-18T00:35:14.919Z,65.45
2018-01-18T00:37:42.479Z,64.84
2018-01-18T00:40:10.140Z,64.87
2018-01-18T00:42:37.716Z,64.27
2018-01-18T00:45:05.220Z,64.75
2018-01-18T00:47:32.817Z,64.46
2018-01-18T00:50:00.320Z,64.26
2018-01-18T00:52:28.243Z,63.46
2018-01-18T00:54:55.737Z,63.55
2018-01-18T00:57:23.253Z,62.99
2018-01-18T00:59:50.820Z,63.63
2018-01-18T01:02:18.314Z,63.98
2018-01-18T01:04:46.122Z,64.14
2018-01-18T01:07:13.616Z,63.31
2018-01-18T01:09:41.156Z,63.52
2018-01-18T01:12:08.722Z,63.43
2018-01-18T01:14:36.283Z,62.51
2018-01-18T01:17:03.841Z,63.47
2018-01-18T01:19:31.352Z,63.51
2018-01-18T01:21:58.857Z,62.92
2018-01-18T01:24:26.451Z,63.40
2018-01-18T01:26:53.957Z,63.64
2018-01-18T01:29:21.536Z,63.32
2018-01-18T01:31:49.049Z,62.88
2018-01-18T01:34:16.537Z,62.56
2018-01-18T01:36:44.065Z,64.34
2018-01-18T01:39:11.568Z,63.91
2018-01-18T01:41:39.328Z,63.13
2018-01-18T01:44:06.852Z,63.08
2018-01-18T01:46:34.349Z,63.21
2018-01-18T01:49:01.899Z,63.05
2018-01-18T01:51:29.411Z,63.21
2018-01-18T01:53:57.323Z,64.25
2018-01-18T01:56:24.811Z,63.69
2018-01-18T01:58:52.340Z,64.39
2018-01-18T02:01:19.898Z,64.83
2018-01-18T02:03:47.396Z,63.84
2018-01-18T02:06:15.324Z,63.85
2018-01-18T02:08:42.821Z,63.56
2018-01-18T02:11:10.417Z,63.16
2018-01-18T02:13:38.003Z,63.58
2018-01-18T02:16:05.501Z,63.90
2018-01-18T02:18:33.119Z,63.48
2018-01-18T02:21:00.629Z,64.27
2018-01-18T02:23:28.136Z,63.65
2018-01-18T02:25:55.667Z,63.44
2018-01-18T02:28:23.177Z,63.95
2018-01-18T02:30:50.731Z,63.54
2018-01-18T02:33:18.277Z,63.64
2018-01-18T02:35:45.830Z,63.56
2018-01-18T02:38:13.388Z,63.92
2018-01-18T02:40:40.889Z,63.33
2018-01-18T02:43:08.588Z,63.26
2018-01-18T02:45:36.100Z,63.88
2018-01-18T02:48:03.615Z,63.68
2018-01-18T02:50:31.210Z,63.83
2018-01-18T02:52:58.742Z,63.84
2018-01-18T02:55:26.405Z,63.15
2018-01-18T02:57:53.904Z,63.78
2018-01-18T03:00:21.419Z,63.86
2018-01-18T03:02:48.979Z,63.90
2018-01-18T03:05:16.480Z,64.27
2018-01-18T03:07:44.199Z,64.29
2018-01-18T03:10:11.739Z,63.96
2018-01-18T03:12:39.323Z,65.07
2018-01-18T03:15:06.847Z,64.78
2018-01-18T03:17:34.357Z,65.24
2018-01-18T03:20:02.097Z,64.63
2018-01-18T03:22:29.592Z,65.19
2018-01-18T03:24:57.092Z,64.47
2018-01-18T03:27:24.625Z,64.89
2018-01-18T03:29:52.129Z,64.98
2018-01-18T03:32:19.682Z,64.64
2018-01-18T03:34:47.257Z,64.60
2018-01-18T03:37:14.748Z,65.57
2018-01-18T03:39:42.277Z,66.31
2018-01-18T03:42:09.824Z,65.81
2018-01-18T03:44:37.586Z,65.92
2018-01-18T03:47:05.106Z,66.43
2018-01-18T03:49:32.613Z,67.53
2018-01-18T03:52:00.144Z,67.84
2018-01-18T03:54:27.651Z,67.38
2018-01-18T03:56:55.484Z,67.96
2018-01-18T03:59:23.062Z,68.46
2018-01-18T04:01:50.604Z,68.28
2018-01-18T04:04:18.131Z,68.08
2018-01-18T04:06:45.629Z,68.58
2018-01-18T04:09:13.381Z,68.38
2018-01-18T04:11:40.941Z,69.16
2018-01-18T04:14:08.453Z,69.32
2018-01-18T04:16:36.004Z,68.51
2018-01-18T04:19:04.028Z,69.52
2018-01-18T04:21:31.529Z,69.48
2018-01-18T04:23:59.353Z,69.00
2018-01-18T04:26:26.856Z,68.37
2018-01-18T04:28:54.353Z,68.95
2018-01-18T04:31:22.131Z,69.66
2018-01-18T04:33:49.625Z,69.19
2018-01-18T04:36:17.155Z,69.61
2018-01-18T04:38:44.912Z,68.65
2018-01-18T04:41:12.417Z,68.82
2018-01-18T04:43:39.916Z,69.09
2018-01-18T04:46:07.486Z,69.52
2018-01-18T04:48:34.996Z,69.93
2018-01-18T04:51:02.507Z,70.31
2018-01-18T04:53:30.234Z,69.78
2018-01-18T04:55:57.741Z,70.44
2018-01-18T04:58:25.233Z,70.36
2018-01-18T05:00:52.943Z,70.22
2018-01-18T05:03:20.450Z,71.29
2018-01-18T05:05:47.944Z,70.59
2018-01-18T05:08:15.792Z,70.31
2018-01-18T05:10:43.293Z,70.70
2018-01-18T05:13:10.789Z,71.50
2018-01-18T05:15:38.348Z,71.83
2018-01-18T05:18:05.855Z,71.23
2018-01-18T05:20:33.361Z,71.03
2018-01-18T05:23:00.896Z,71.40
2018-01-18T05:25:28.402Z,70.44
2018-01-18T05:27:55.990Z,71.45
2018-01-18T05:30:23.522Z,70.87
2018-01-18T05:32:51.028Z,71.93
2018-01-18T05:35:18.569Z,71.80
2018-01-18T05:37:46.227Z,71.66
2018-01-18T05:40:13.732Z,71.46
2018-01-18T05:42:41.237Z,72.41
2018-01-18T05:45:08.800Z,71.49
2018-01-18T05:47:36.296Z,72.68
2018-01-18T05:50:03.794Z,72.28
2018-01-18T05:52:31.317Z,71.92
2018-01-18T05:54:59.756Z,71.73
2018-01-18T05:57:28.236Z,72.50
2018-01-18T05:59:55.795Z,72.38
2018-01-18T06:02:23.297Z,72.39
2018-01-18T06:04:50.810Z,72.15
2018-01-18T06:07:18.369Z,72.21
2018-01-18T06:09:45.873Z,72.03
2018-01-18T06:12:13.385Z,72.51
2018-01-18T06:14:40.945Z,71.97
2018-01-18T06:17:08.444Z,71.91
2018-01-18T06:19:36.079Z,72.24
2018-01-18T06:22:03.599Z,72.23
2018-01-18T06:24:31.092Z,72.67
2018-01-18T06:26:58.589Z,71.99
2018-01-18T06:29:26.112Z,72.40
2018-01-18T06:31:53.655Z,71.81
2018-01-18T06:34:21.159Z,71.64
2018-01-18T06:36:48.691Z,72.19
2018-01-18T06:39:16.230Z,72.30
2018-01-18T06:41:43.735Z,72.33
2018-01-18T06:44:11.268Z,72.32
2018-01-18T06:46:38.806Z,72.16
2018-01-18T06:49:06.656Z,71.73
2018-01-18T06:51:34.229Z,72.68
2018-01-18T06:54:01.736Z,72.31
2018-01-18T06:56:29.264Z,72.46
2018-01-18T06:58:56.798Z,73.17
2018-01-18T07:01:24.300Z,73.07
2018-01-18T07:03:51.822Z,73.10
2018-01-18T07:06:19.326Z,72.26
2018-01-18T07:08:46.858Z,72.23
2018-01-18T07:11:14.403Z,72.47
2018-01-18T07:13:42.033Z,72.66
2018-01-18T07:16:09.610Z,71.71
2018-01-18T07:18:37.105Z,71.69
2018-01-18T07:21:05.143Z,72.54
2018-01-18T07:23:32.703Z,72.02
2018-01-18T07:26:00.200Z,71.87
2018-01-18T07:28:27.732Z,72.05
2018-01-18T07:30:55.313Z,70.84
2018-01-18T07:33:22.840Z,71.62
2018-01-18T07:35:50.395Z,71.49
2018-01-18T07:38:17.894Z,71.45
2018-01-18T07:40:45.425Z,71.54
2018-01-18T07:43:12.971Z,70.58
2018-01-18T07:45:40.488Z,70.87
2018-01-18T07:48:08.016Z,71.12
2018-01-18T07:50:35.517Z,70.82
2018-01-18T07:53:03.041Z,70.73
2018-01-18T07:55:30.540Z,70.88
2018-01-18T07:57:58.072Z,71.30
2018-01-18T08:00:25.602Z,70.93
2018-01-18T08:02:58.668Z,71.41
2018-01-18T08:05:26.225Z,71.17
2018-01-18T08:07:53.734Z,71.26
2018-01-18T08:10:21.259Z,71.92
2018-01-18T08:12:48.763Z,71.58
2018-01-18T08:15:16.288Z,70.67
2018-01-18T08:17:43.810Z,70.96
2018-01-18T08:20:11.309Z,70.85
2018-01-18T08:22:38.838Z,70.84
2018-01-18T08:25:06.355Z,71.33
2018-01-18T08:27:33.891Z,71.00
2018-01-18T08:30:01.418Z,71.32
2018-01-18T08:32:28.913Z,71.33
2018-01-18T08:34:56.461Z,71.14
2018-01-18T08:37:23.981Z,71.47
2018-01-18T08:39:51.543Z,71.93
2018-01-18T08:42:19.100Z,71.11
2018-01-18T08:44:46.596Z,71.91
2018-01-18T08:47:14.219Z,72.35
2018-01-18T08:49:41.721Z,71.93
2018-01-18T08:52:09.257Z,71.58
2018-01-18T08:54:36.793Z,72.75
2018-01-18T08:57:04.294Z,73.06
2018-01-18T08:59:31.821Z,72.41
2018-01-18T09:01:59.317Z,71.92
2018-01-18T09:04:26.852Z,71.80
2018-01-18T09:06:54.380Z,71.08
2018-01-18T09:09:21.884Z,70.65
2018-01-18T09:11:49.429Z,70.46
2018-01-18T09:14:16.961Z,69.88
2018-01-18T09:16:44.562Z,70.14
2018-01-18T09:19:12.079Z,70.17
2018-01-18T09:21:39.630Z,69.70
2018-01-18T09:24:07.195Z,69.57
2018-01-18T09:26:34.706Z,69.22
2018-01-18T09:29:02.240Z,70.04
2018-01-18T09:31:29.776Z,69.37
2018-01-18T09:33:57.273Z,69.82
2018-01-18T09:36:24.806Z,69.62
2018-01-18T09:38:52.300Z,69.72
2018-01-18T09:41:19.822Z,69.45
2018-01-18T09:43:47.350Z,68.72
2018-01-18T09:46:14.847Z,68.43
2018-01-18T09:48:42.401Z,68.43
2018-01-18T09:51:09.901Z,67.81
2018-01-18T09:53:37.522Z,67.59
2018-01-18T09:56:05.054Z,67.63
2018-01-18T09:58:32.560Z,66.20
2018-01-18T10:01:00.116Z,66.25
2018-01-18T10:03:27.629Z,64.77
2018-01-18T10:05:55.332Z,65.12
2018-01-18T10:08:22.833Z,65.15
2018-01-18T10:10:50.329Z,65.69
2018-01-18T10:13:17.865Z,63.67
2018-01-18T10:15:45.368Z,62.86
2018-01-18T10:18:13.172Z,63.19
2018-01-18T10:20:40.672Z,61.23
2018-01-18T10:23:08.205Z,60.56
2018-01-18T10:25:35.764Z,61.39
2018-01-18T10:28:03.325Z,60.64
2018-01-18T10:30:31.257Z,62.95
2018-01-18T10:32:58.756Z,63.04
2018-01-18T10:35:26.264Z,62.97
2018-01-18T10:37:53.824Z,63.06
2018-01-18T10:40:22.332Z,63.97
2018-01-18T10:42:49.960Z,63.11
2018-01-18T10:45:17.484Z,62.65
2018-01-18T10:47:44.981Z,62.61
2018-01-18T10:50:12.516Z,63.64
2018-01-18T10:52:40.024Z,63.23
2018-01-18T10:55:08.242Z,63.01
2018-01-18T10:57:35.752Z,63.84
2018-01-18T11:00:03.264Z,63.10
2018-01-18T11:02:31.813Z,63.14
2018-01-18T11:04:59.314Z,62.41
2018-01-18T11:07:27.239Z,62.83
2018-01-18T11:09:54.803Z,62.63
2018-01-18T11:12:22.313Z,62.74
2018-01-18T11:14:49.844Z,63.34
2018-01-18T11:17:17.361Z,62.76
2018-01-18T11:19:44.905Z,63.45
2018-01-18T11:22:15.500Z,62.14
2018-01-18T11:24:43.037Z,61.31
2018-01-18T11:27:10.556Z,62.20
2018-01-18T11:29:41.526Z,62.20
2018-01-18T11:32:09.383Z,61.66
2018-01-18T11:34:36.890Z,59.52
2018-01-18T11:37:04.413Z,59.45
2018-01-18T11:39:31.940Z,59.81
2018-01-18T11:41:59.441Z,58.75
2018-01-18T11:44:26.978Z,59.01
2018-01-18T11:46:54.481Z,59.58
2018-01-18T11:49:22.038Z,59.36
2018-01-18T11:51:49.578Z,59.71
2018-01-18T11:54:17.104Z,58.33
2018-01-18T11:56:44.788Z,59.04
2018-01-18T11:59:12.329Z,58.80
2018-01-18T12:01:39.881Z,56.92
2018-01-18T12:04:07.447Z,57.53
2018-01-18T12:06:34.950Z,57.24
2018-01-18T12:09:02.565Z,57.37
2018-01-18T12:11:30.124Z,57.08
2018-01-18T12:13:57.638Z,56.76
2018-01-18T12:16:25.174Z,55.63
2018-01-18T12:18:52.700Z,56.66
2018-01-18T12:21:21.181Z,57.21
2018-01-18T12:23:48.828Z,57.08
2018-01-18T12:26:16.331Z,57.06
2018-01-18T12:28:43.859Z,57.23
2018-01-18T12:31:11.377Z,57.10
2018-01-18T12:33:39.057Z,57.52
2018-01-18T12:36:06.556Z,57.53
2018-01-18T12:38:34.105Z,56.85
2018-01-18T12:41:01.757Z,56.83
2018-01-18T12:43:29.269Z,55.77
2018-01-18T12:45:57.079Z,56.03
2018-01-18T12:48:24.590Z,55.83
2018-01-18T12:50:52.094Z,55.38
2018-01-18T12:53:19.637Z,54.91
2018-01-18T12:55:47.878Z,55.37
2018-01-18T12:58:15.417Z,54.96
2018-01-18T13:00:42.952Z,55.58
2018-01-18T13:03:10.485Z,55.36
2018-01-18T13:05:38.028Z,55.17
2018-01-18T13:08:05.539Z,55.56
2018-01-18T13:10:33.090Z,56.57
2018-01-18T13:13:00.924Z,56.44
2018-01-18T13:15:28.425Z,57.30
2018-01-18T13:17:55.968Z,58.16
2018-01-18T13:20:23.553Z,58.27
2018-01-18T13:22:51.126Z,57.59
2018-01-18T13:25:18.647Z,57.08
2018-01-18T13:27:46.144Z,57.20
2018-01-18T13:30:13.673Z,57.17
2018-01-18T13:32:41.189Z,57.81
2018-01-18T13:35:08.744Z,58.55
2018-01-18T13:37:36.426Z,58.44
2018-01-18T13:40:03.948Z,60.59
2018-01-18T13:42:31.482Z,62.30
2018-01-18T13:44:59.010Z,62.26
2018-01-18T13:47:26.649Z,62.47
2018-01-18T13:49:54.539Z,63.91
2018-01-18T13:52:22.048Z,65.66
2018-01-18T13:54:49.586Z,66.05
2018-01-18T13:57:17.113Z,66.58
2018-01-18T13:59:44.878Z,67.02
2018-01-18T14:02:12.378Z,66.70
2018-01-18T14:04:39.881Z,66.25
2018-01-18T14:07:07.455Z,66.06
2018-01-18T14:09:35.012Z,65.23
2018-01-18T14:12:02.557Z,66.03
2018-01-18T14:14:30.053Z,65.37
2018-01-18T14:16:57.576Z,64.72
2018-01-18T14:19:26.170Z,64.89
2018-01-18T14:21:53.693Z,63.31
2018-01-18T14:24:21.696Z,63.31
2018-01-18T14:26:49.257Z,62.78
2018-01-18T14:29:16.817Z,63.41
2018-01-18T14:31:44.493Z,63.88
2018-01-18T14:34:12.038Z,63.62
2018-01-18T14:36:39.854Z,64.65
2018-01-18T14:39:07.364Z,64.35
2018-01-18T14:41:34.866Z,65.47
2018-01-18T14:44:02.392Z,65.71
2018-01-18T14:46:29.941Z,65.62
2018-01-18T14:48:57.630Z,64.93
2018-01-18T14:51:25.159Z,65.20
2018-01-18T14:53:53.739Z,66.19
2018-01-18T14:56:21.298Z,64.90
2018-01-18T14:58:48.797Z,65.28
2018-01-18T15:01:16.588Z,64.85
2018-01-18T15:03:44.590Z,65.05
2018-01-18T15:06:12.115Z,66.83
2018-01-18T15:08:39.640Z,66.70
2018-01-18T15:11:07.153Z,68.22
2018-01-18T15:13:34.826Z,69.36
2018-01-18T15:16:02.347Z,68.58
2018-01-18T15:18:29.962Z,68.39
2018-01-18T15:20:57.608Z,68.67
2018-01-18T15:23:25.197Z,70.80
2018-01-18T15:25:52.765Z,69.15
2018-01-18T15:28:20.268Z,68.35
2018-01-18T15:30:47.800Z,66.97
2018-01-18T15:33:15.472Z,67.47
2018-01-18T15:35:43.001Z,66.56
2018-01-18T15:38:11.751Z,66.47
2018-01-18T15:40:39.924Z,65.30
2018-01-18T15:43:07.689Z,65.25
2018-01-18T15:45:35.460Z,64.80
2018-01-18T15:48:03.017Z,66.05
2018-01-18T15:50:30.776Z,66.15
2018-01-18T15:52:58.334Z,66.81
2018-01-18T15:55:25.860Z,67.08
2018-01-18T15:57:53.555Z,67.42
2018-01-18T16:00:21.318Z,67.67
2018-01-18T16:02:49.354Z,68.19
2018-01-18T16:05:17.255Z,67.20
2018-01-18T16:07:44.858Z,67.89
2018-01-18T16:10:12.684Z,67.62
2018-01-18T16:12:40.213Z,67.56
2018-01-18T16:15:08.077Z,68.70
2018-01-18T16:17:35.664Z,67.83
2018-01-18T16:20:03.309Z,67.70
2018-01-18T16:22:30.849Z,67.13
2018-01-18T16:24:58.551Z,67.03
2018-01-18T16:27:26.348Z,66.72
2018-01-18T16:29:54.014Z,67.87
2018-01-18T16:32:21.601Z,69.92
2018-01-18T16:34:49.245Z,69.34
2018-01-18T16:37:16.908Z,69.36
2018-01-18T16:39:45.024Z,68.28
2018-01-18T16:42:12.556Z,67.10
2018-01-18T16:44:40.091Z,66.20
2018-01-18T16:47:07.911Z,66.56
2018-01-18T16:49:35.496Z,65.45
2018-01-18T16:52:03.241Z,65.94
2018-01-18T16:54:31.001Z,65.03
2018-01-18T16:56:58.666Z,65.30
2018-01-18T16:59:26.695Z,65.13
2018-01-18T17:01:54.373Z,64.68
2018-01-18T17:04:22.650Z,65.33
2018-01-18T17:06:50.437Z,65.71
2018-01-18T17:09:18.216Z,65.00
2018-01-18T17:11:45.981Z,65.24
2018-01-18T17:14:14.163Z,65.28
2018-01-18T17:16:42.003Z,64.91
2018-01-18T17:19:09.767Z,63.69
2018-01-18T17:21:37.322Z,64.10
2018-01-18T17:24:05.090Z,64.37
2018-01-18T17:26:32.749Z,63.61
2018-01-18T17:29:00.635Z,63.01
2018-01-18T17:31:28.176Z,62.58
2018-01-18T17:33:55.685Z,62.12
2018-01-18T17:36:23.213Z,63.17
2018-01-18T17:38:50.769Z,62.33
2018-01-18T17:41:18.311Z,63.12
2018-01-18T17:43:45.821Z,62.90
2018-01-18T17:46:13.337Z,63.14
2018-01-18T17:48:40.868Z,63.31
2018-01-18T17:51:09.139Z,62.82
2018-01-18T17:53:37.132Z,63.84
2018-01-18T17:56:04.731Z,63.20
2018-01-18T17:58:32.386Z,62.98
2018-01-18T18:00:59.969Z,62.05
2018-01-18T18:03:27.476Z,61.85
2018-01-18T18:05:56.054Z,62.92
2018-01-18T18:08:24.917Z,62.01
2018-01-18T18:10:52.566Z,62.92
2018-01-18T18:13:20.360Z,62.15
2018-01-18T18:15:48.032Z,62.08
2018-01-18T18:18:15.797Z,61.29
2018-01-18T18:20:43.563Z,61.44
2018-01-18T18:23:11.427Z,62.47
2018-01-18T18:25:39.292Z,63.51
2018-01-18T18:28:07.043Z,63.39
2018-01-18T18:30:34.672Z,65.04
2018-01-18T18:33:02.382Z,65.57
2018-01-18T18:35:30.145Z,64.25
2018-01-18T18:37:57.811Z,64.89
2018-01-18T18:40:25.569Z,64.40
2018-01-18T18:42:54.242Z,64.60
2018-01-18T18:45:21.816Z,64.83
2018-01-18T18:47:49.509Z,65.08
2018-01-18T18:50:17.241Z,65.59
2018-01-18T18:52:44.925Z,65.01
2018-01-18T18:55:12.981Z,65.94
2018-01-18T18:57:40.848Z,64.29
2018-01-18T19:00:08.716Z,64.19
2018-01-18T19:02:36.480Z,64.94
2018-01-18T19:05:04.439Z,65.23
2018-01-18T19:07:33.430Z,64.82
2018-01-18T19:10:02.219Z,64.83
2018-01-18T19:12:30.006Z,65.05
2018-01-18T19:14:58.485Z,65.62
2018-01-18T19:17:26.245Z,66.12
2018-01-18T19:19:54.517Z,65.82
2018-01-18T19:22:22.779Z,65.24
2018-01-18T19:24:50.852Z,64.64
2018-01-18T19:27:18.627Z,64.64
2018-01-18T19:29:47.937Z,64.88
2018-01-18T19:32:15.988Z,65.13
2018-01-18T19:34:45.008Z,64.69
2018-01-18T19:37:13.272Z,64.44
2018-01-18T19:39:41.742Z,63.98
2018-01-18T19:42:12.679Z,63.06
2018-01-18T19:44:40.863Z,64.13
2018-01-18T19:47:08.941Z,63.13
2018-01-18T19:49:37.322Z,63.27
2018-01-18T19:52:05.932Z,63.34
2018-01-18T19:54:34.176Z,63.53
2018-01-18T19:57:02.744Z,63.91
2018-01-18T19:59:30.519Z,64.10
2018-01-18T20:01:58.485Z,63.24
2018-01-18T20:04:26.457Z,63.47
2018-01-18T20:06:55.229Z,63.43
2018-01-18T20:09:23.402Z,63.60
2018-01-18T20:11:51.268Z,63.59
2018-01-18T20:14:19.167Z,62.43
2018-01-18T20:16:47.076Z,64.59
2018-01-18T20:19:15.485Z,64.47
2018-01-18T20:21:43.563Z,63.12
2018-01-18T20:24:11.476Z,62.90
2018-01-18T20:26:39.242Z,61.90
2018-01-18T20:29:07.152Z,62.84
2018-01-18T20:31:35.019Z,62.63
2018-01-18T20:34:03.098Z,62.86
2018-01-18T20:36:30.854Z,62.51
2018-01-18T20:38:58.618Z,62.57
2018-01-18T20:41:26.485Z,62.53
2018-01-18T20:43:54.350Z,61.69
2018-01-18T20:46:22.422Z,62.24
2018-01-18T20:48:51.109Z,62.17
2018-01-18T20:51:18.974Z,62.32
2018-01-18T20:53:46.741Z,62.56
2018-01-18T20:56:14.604Z,62.74
2018-01-18T20:58:43.149Z,64.01
2018-01-18T21:01:11.181Z,62.10
2018-01-18T21:03:39.280Z,62.38
2018-01-18T21:06:07.619Z,62.65
2018-01-18T21:08:35.399Z,63.63
2018-01-18T21:11:03.817Z,63.66
2018-01-18T21:13:31.436Z,64.29
2018-01-18T21:15:59.966Z,65.00
2018-01-18T21:18:29.296Z,63.78
2018-01-18T21:20:59.107Z,63.72
2018-01-18T21:23:27.332Z,63.21
2018-01-18T21:25:55.400Z,64.49
2018-01-18T21:28:23.991Z,65.24
2018-01-18T21:30:51.680Z,64.66
2018-01-18T21:33:19.312Z,64.33
2018-01-18T21:35:47.225Z,65.03
2018-01-18T21:38:15.296Z,65.35
2018-01-18T21:40:43.057Z,63.64
2018-01-18T21:43:10.926Z,63.76
2018-01-18T21:45:38.579Z,62.91
2018-01-18T21:48:06.558Z,62.97
2018-01-18T21:50:34.333Z,63.57
2018-01-18T21:53:02.495Z,63.18
2018-01-18T21:55:30.640Z,62.21
2018-01-18T21:57:58.333Z,62.84
2018-01-18T22:00:26.199Z,61.81
2018-01-18T22:02:54.062Z,62.55
2018-01-18T22:05:21.620Z,62.61
2018-01-18T22:07:50.078Z,62.04
2018-01-18T22:10:17.603Z,62.93
2018-01-18T22:12:45.330Z,64.56
2018-01-18T22:15:12.911Z,64.25
2018-01-18T22:17:40.648Z,64.05
2018-01-18T22:20:08.307Z,62.88
2018-01-18T22:22:35.869Z,62.78
2018-01-18T22:25:03.507Z,62.86
2018-01-18T22:27:31.015Z,62.31
2018-01-18T22:29:58.521Z,63.29
2018-01-18T22:32:26.057Z,63.28
2018-01-18T22:34:53.663Z,62.85
2018-01-18T22:37:21.426Z,62.82
2018-01-18T22:39:48.924Z,62.53
2018-01-18T22:42:16.439Z,62.99
2018-01-18T22:44:44.002Z,62.70
2018-01-18T22:47:11.529Z,62.35
2018-01-18T22:49:39.325Z,62.36
2018-01-18T22:52:06.848Z,62.47
2018-01-18T22:54:34.370Z,64.13
2018-01-18T22:57:02.106Z,63.50
2018-01-18T22:59:29.625Z,63.59
2018-01-18T23:01:57.152Z,63.72
2018-01-18T23:04:24.695Z,63.27
2018-01-18T23:06:52.257Z,63.67
2018-01-18T23:09:19.800Z,64.26
2018-01-18T23:11:47.301Z,63.66
2018-01-18T23:14:14.828Z,66.57
2018-01-18T23:16:42.353Z,65.97
2018-01-18T23:19:10.144Z,65.84
2018-01-18T23:21:37.644Z,65.64
2018-01-18T23:24:05.170Z,65.75
2018-01-18T23:26:32.825Z,65.47
2018-01-18T23:29:00.396Z,66.17
2018-01-18T23:31:28.085Z,66.12
2018-01-18T23:33:55.588Z,65.35
2018-01-18T23:36:23.084Z,65.42
2018-01-18T23:38:50.614Z,65.86
2018-01-18T23:41:18.118Z,66.35
2018-01-18T23:43:45.742Z,65.37
2018-01-18T23:46:13.291Z,65.88
2018-01-18T23:48:40.799Z,65.07
2018-01-18T23:51:08.333Z,64.57
2018-01-18T23:53:35.863Z,65.63
2018-01-18T23:56:03.439Z,64.87
2018-01-18T23:58:31.085Z,64.52
